sensor_id;sensor_type;location;lat;lon;timestamp;temperature;humidity
15574;DHT22;7888;46.748;8.102;2023-01-16T00:01:25;5.70;57.50
15574;DHT22;7888;46.748;8.102;2023-01-16T00:03:53;5.70;57.50
15574;DHT22;7888;46.748;8.102;2023-01-16T00:06:18;5.70;57.50
15574;DHT22;7888;46.748;8.102;2023-01-16T00:08:44;5.70;57.50
15574;DHT22;7888;46.748;8.102;2023-01-16T00:11:12;5.70;57.50
15574;DHT22;7888;46.748;8.102;2023-01-16T00:13:38;5.70;57.40
15574;DHT22;7888;46.748;8.102;2023-01-16T00:16:05;5.70;57.40
15574;DHT22;7888;46.748;8.102;2023-01-16T00:18:31;5.70;57.50
15574;DHT22;7888;46.748;8.102;2023-01-16T00:20:57;5.70;57.50
15574;DHT22;7888;46.748;8.102;2023-01-16T00:23:23;5.70;57.50
15574;DHT22;7888;46.748;8.102;2023-01-16T00:25:49;5.70;57.50
15574;DHT22;7888;46.748;8.102;2023-01-16T00:28:15;5.70;57.50
15574;DHT22;7888;46.748;8.102;2023-01-16T00:30:41;5.70;57.50
15574;DHT22;7888;46.748;8.102;2023-01-16T00:33:08;5.70;57.50
15574;DHT22;7888;46.748;8.102;2023-01-16T00:35:34;5.70;57.50
15574;DHT22;7888;46.748;8.102;2023-01-16T00:38:00;5.60;57.30
15574;DHT22;7888;46.748;8.102;2023-01-16T00:40:26;5.60;57.20
15574;DHT22;7888;46.748;8.102;2023-01-16T00:42:53;5.60;57.20
15574;DHT22;7888;46.748;8.102;2023-01-16T00:45:19;5.60;57.10
15574;DHT22;7888;46.748;8.102;2023-01-16T00:47:44;5.60;57.10
15574;DHT22;7888;46.748;8.102;2023-01-16T00:50:10;5.60;57.10
15574;DHT22;7888;46.748;8.102;2023-01-16T00:52:36;5.60;57.10
15574;DHT22;7888;46.748;8.102;2023-01-16T00:55:03;5.50;57.00
15574;DHT22;7888;46.748;8.102;2023-01-16T00:57:29;5.50;56.90
15574;DHT22;7888;46.748;8.102;2023-01-16T00:59:55;5.50;56.80
15574;DHT22;7888;46.748;8.102;2023-01-16T01:02:21;5.50;57.00
15574;DHT22;7888;46.748;8.102;2023-01-16T01:04:46;5.50;56.90
15574;DHT22;7888;46.748;8.102;2023-01-16T01:07:12;5.40;56.80
15574;DHT22;7888;46.748;8.102;2023-01-16T01:09:38;5.40;56.80
15574;DHT22;7888;46.748;8.102;2023-01-16T01:12:04;5.40;56.70
15574;DHT22;7888;46.748;8.102;2023-01-16T01:14:29;5.30;56.70
15574;DHT22;7888;46.748;8.102;2023-01-16T01:16:55;5.30;56.70
15574;DHT22;7888;46.748;8.102;2023-01-16T01:19:21;5.30;56.70
15574;DHT22;7888;46.748;8.102;2023-01-16T01:21:47;5.30;56.60
15574;DHT22;7888;46.748;8.102;2023-01-16T01:24:13;5.30;56.70
15574;DHT22;7888;46.748;8.102;2023-01-16T01:26:38;5.20;56.60
15574;DHT22;7888;46.748;8.102;2023-01-16T01:29:04;5.20;56.70
15574;DHT22;7888;46.748;8.102;2023-01-16T01:31:30;5.20;56.70
15574;DHT22;7888;46.748;8.102;2023-01-16T01:33:56;5.10;56.70
15574;DHT22;7888;46.748;8.102;2023-01-16T01:36:22;5.20;56.90
15574;DHT22;7888;46.748;8.102;2023-01-16T01:38:47;5.10;56.90
15574;DHT22;7888;46.748;8.102;2023-01-16T01:41:16;5.10;56.90
15574;DHT22;7888;46.748;8.102;2023-01-16T01:43:50;5.10;57.50
15574;DHT22;7888;46.748;8.102;2023-01-16T01:46:30;5.10;56.90
15574;DHT22;7888;46.748;8.102;2023-01-16T01:49:20;5.00;56.90
15574;DHT22;7888;46.748;8.102;2023-01-16T01:51:50;5.00;56.90
15574;DHT22;7888;46.748;8.102;2023-01-16T01:54:22;5.00;56.80
15574;DHT22;7888;46.748;8.102;2023-01-16T01:56:59;5.00;56.80
15574;DHT22;7888;46.748;8.102;2023-01-16T01:59:33;5.00;56.90
15574;DHT22;7888;46.748;8.102;2023-01-16T02:02:04;5.00;56.70
15574;DHT22;7888;46.748;8.102;2023-01-16T02:04:35;4.90;56.60
15574;DHT22;7888;46.748;8.102;2023-01-16T02:07:08;4.90;56.70
15574;DHT22;7888;46.748;8.102;2023-01-16T02:09:37;4.90;56.70
15574;DHT22;7888;46.748;8.102;2023-01-16T02:12:09;4.90;56.70
15574;DHT22;7888;46.748;8.102;2023-01-16T02:14:41;4.80;56.80
15574;DHT22;7888;46.748;8.102;2023-01-16T02:17:12;4.80;56.70
15574;DHT22;7888;46.748;8.102;2023-01-16T02:29:21;4.80;57.00
15574;DHT22;7888;46.748;8.102;2023-01-16T02:35:21;4.70;56.80
15574;DHT22;7888;46.748;8.102;2023-01-16T02:44:12;4.70;56.70
15574;DHT22;7888;46.748;8.102;2023-01-16T02:46:51;4.60;56.50
15574;DHT22;7888;46.748;8.102;2023-01-16T02:49:37;4.60;56.70
15574;DHT22;7888;46.748;8.102;2023-01-16T02:52:11;4.60;56.70
15574;DHT22;7888;46.748;8.102;2023-01-16T02:54:56;4.60;56.80
15574;DHT22;7888;46.748;8.102;2023-01-16T02:57:39;4.60;57.30
15574;DHT22;7888;46.748;8.102;2023-01-16T03:00:10;4.60;56.80
15574;DHT22;7888;46.748;8.102;2023-01-16T03:02:38;4.50;56.60
15574;DHT22;7888;46.748;8.102;2023-01-16T03:05:04;4.50;56.60
15574;DHT22;7888;46.748;8.102;2023-01-16T03:07:40;4.50;56.60
15574;DHT22;7888;46.748;8.102;2023-01-16T03:13:18;4.50;56.70
15574;DHT22;7888;46.748;8.102;2023-01-16T03:19:04;4.40;56.40
15574;DHT22;7888;46.748;8.102;2023-01-16T03:22:07;4.40;56.40
15574;DHT22;7888;46.748;8.102;2023-01-16T03:28:12;4.30;56.40
15574;DHT22;7888;46.748;8.102;2023-01-16T03:31:17;4.30;56.60
15574;DHT22;7888;46.748;8.102;2023-01-16T03:34:17;4.30;56.60
15574;DHT22;7888;46.748;8.102;2023-01-16T03:36:56;4.30;56.60
15574;DHT22;7888;46.748;8.102;2023-01-16T03:39:29;4.20;56.60
15574;DHT22;7888;46.748;8.102;2023-01-16T03:42:07;4.20;56.60
15574;DHT22;7888;46.748;8.102;2023-01-16T03:44:42;4.20;56.70
15574;DHT22;7888;46.748;8.102;2023-01-16T03:47:19;4.20;56.70
15574;DHT22;7888;46.748;8.102;2023-01-16T03:49:59;4.20;56.70
15574;DHT22;7888;46.748;8.102;2023-01-16T03:52:51;4.20;56.70
15574;DHT22;7888;46.748;8.102;2023-01-16T03:58:15;4.20;56.60
15574;DHT22;7888;46.748;8.102;2023-01-16T04:04:11;4.10;56.40
15574;DHT22;7888;46.748;8.102;2023-01-16T04:09:38;4.10;56.40
15574;DHT22;7888;46.748;8.102;2023-01-16T04:12:11;4.00;56.50
15574;DHT22;7888;46.748;8.102;2023-01-16T04:14:40;4.10;56.50
15574;DHT22;7888;46.748;8.102;2023-01-16T04:17:08;4.00;56.50
15574;DHT22;7888;46.748;8.102;2023-01-16T04:19:34;4.00;56.50
15574;DHT22;7888;46.748;8.102;2023-01-16T04:22:08;4.00;56.50
15574;DHT22;7888;46.748;8.102;2023-01-16T04:24:44;4.00;56.50
15574;DHT22;7888;46.748;8.102;2023-01-16T04:27:09;4.00;56.50
15574;DHT22;7888;46.748;8.102;2023-01-16T04:29:35;4.00;56.50
15574;DHT22;7888;46.748;8.102;2023-01-16T04:32:01;4.00;56.40
15574;DHT22;7888;46.748;8.102;2023-01-16T04:34:27;4.00;56.40
15574;DHT22;7888;46.748;8.102;2023-01-16T04:36:53;4.00;56.40
15574;DHT22;7888;46.748;8.102;2023-01-16T04:39:18;4.00;56.30
15574;DHT22;7888;46.748;8.102;2023-01-16T04:41:44;4.00;56.40
15574;DHT22;7888;46.748;8.102;2023-01-16T04:44:15;4.00;56.50
15574;DHT22;7888;46.748;8.102;2023-01-16T04:46:42;3.90;56.40
15574;DHT22;7888;46.748;8.102;2023-01-16T04:49:08;3.90;56.40
15574;DHT22;7888;46.748;8.102;2023-01-16T04:51:35;3.90;56.40
15574;DHT22;7888;46.748;8.102;2023-01-16T04:54:03;3.90;56.50
15574;DHT22;7888;46.748;8.102;2023-01-16T04:56:31;3.90;56.40
15574;DHT22;7888;46.748;8.102;2023-01-16T04:58:57;3.80;56.40
15574;DHT22;7888;46.748;8.102;2023-01-16T05:01:23;3.80;56.40
15574;DHT22;7888;46.748;8.102;2023-01-16T05:03:49;3.80;56.50
15574;DHT22;7888;46.748;8.102;2023-01-16T05:06:15;3.80;56.50
15574;DHT22;7888;46.748;8.102;2023-01-16T05:08:42;3.80;56.50
15574;DHT22;7888;46.748;8.102;2023-01-16T05:11:08;3.80;56.50
15574;DHT22;7888;46.748;8.102;2023-01-16T05:13:33;3.80;56.40
15574;DHT22;7888;46.748;8.102;2023-01-16T05:15:59;3.70;56.40
15574;DHT22;7888;46.748;8.102;2023-01-16T05:18:26;3.70;56.40
15574;DHT22;7888;46.748;8.102;2023-01-16T05:20:52;3.70;56.50
15574;DHT22;7888;46.748;8.102;2023-01-16T05:23:18;3.70;56.40
15574;DHT22;7888;46.748;8.102;2023-01-16T05:25:43;3.70;56.40
15574;DHT22;7888;46.748;8.102;2023-01-16T05:28:09;3.70;56.30
15574;DHT22;7888;46.748;8.102;2023-01-16T05:30:36;3.70;56.30
15574;DHT22;7888;46.748;8.102;2023-01-16T05:33:02;3.70;56.40
15574;DHT22;7888;46.748;8.102;2023-01-16T05:35:30;3.70;56.40
15574;DHT22;7888;46.748;8.102;2023-01-16T05:37:56;3.70;56.30
15574;DHT22;7888;46.748;8.102;2023-01-16T05:40:22;3.70;56.30
15574;DHT22;7888;46.748;8.102;2023-01-16T05:42:47;3.60;56.30
15574;DHT22;7888;46.748;8.102;2023-01-16T05:45:14;3.60;56.40
15574;DHT22;7888;46.748;8.102;2023-01-16T05:47:39;3.60;56.40
15574;DHT22;7888;46.748;8.102;2023-01-16T05:50:06;3.70;56.30
15574;DHT22;7888;46.748;8.102;2023-01-16T05:52:32;3.60;56.30
15574;DHT22;7888;46.748;8.102;2023-01-16T05:54:58;3.60;56.30
15574;DHT22;7888;46.748;8.102;2023-01-16T05:57:24;3.60;56.30
15574;DHT22;7888;46.748;8.102;2023-01-16T05:59:50;3.60;56.50
15574;DHT22;7888;46.748;8.102;2023-01-16T06:02:18;3.60;56.50
15574;DHT22;7888;46.748;8.102;2023-01-16T06:04:45;3.60;56.60
15574;DHT22;7888;46.748;8.102;2023-01-16T06:07:12;3.60;56.60
15574;DHT22;7888;46.748;8.102;2023-01-16T06:09:38;3.60;56.60
15574;DHT22;7888;46.748;8.102;2023-01-16T06:12:05;3.60;56.60
15574;DHT22;7888;46.748;8.102;2023-01-16T06:14:33;3.60;56.60
15574;DHT22;7888;46.748;8.102;2023-01-16T06:16:59;3.60;56.60
15574;DHT22;7888;46.748;8.102;2023-01-16T06:19:25;3.60;56.70
15574;DHT22;7888;46.748;8.102;2023-01-16T06:21:51;3.60;56.60
15574;DHT22;7888;46.748;8.102;2023-01-16T06:24:17;3.60;56.70
15574;DHT22;7888;46.748;8.102;2023-01-16T06:26:42;3.60;56.70
15574;DHT22;7888;46.748;8.102;2023-01-16T06:29:09;3.60;56.70
15574;DHT22;7888;46.748;8.102;2023-01-16T06:31:35;3.60;56.70
15574;DHT22;7888;46.748;8.102;2023-01-16T06:34:01;3.50;56.60
15574;DHT22;7888;46.748;8.102;2023-01-16T06:36:27;3.50;56.60
15574;DHT22;7888;46.748;8.102;2023-01-16T06:38:53;3.50;56.60
15574;DHT22;7888;46.748;8.102;2023-01-16T06:41:19;3.50;56.60
15574;DHT22;7888;46.748;8.102;2023-01-16T06:43:45;3.50;56.60
15574;DHT22;7888;46.748;8.102;2023-01-16T06:46:11;3.50;56.60
15574;DHT22;7888;46.748;8.102;2023-01-16T06:48:37;3.50;56.60
15574;DHT22;7888;46.748;8.102;2023-01-16T06:51:03;3.40;56.60
15574;DHT22;7888;46.748;8.102;2023-01-16T06:53:28;3.40;56.60
15574;DHT22;7888;46.748;8.102;2023-01-16T06:55:54;3.50;56.70
15574;DHT22;7888;46.748;8.102;2023-01-16T06:58:20;3.40;56.90
15574;DHT22;7888;46.748;8.102;2023-01-16T07:00:47;3.40;56.80
15574;DHT22;7888;46.748;8.102;2023-01-16T07:03:16;3.40;56.80
15574;DHT22;7888;46.748;8.102;2023-01-16T07:05:44;3.40;56.90
15574;DHT22;7888;46.748;8.102;2023-01-16T07:08:11;3.50;57.00
15574;DHT22;7888;46.748;8.102;2023-01-16T07:10:37;3.50;57.00
15574;DHT22;7888;46.748;8.102;2023-01-16T07:13:03;3.50;56.70
15574;DHT22;7888;46.748;8.102;2023-01-16T07:15:29;3.50;56.70
15574;DHT22;7888;46.748;8.102;2023-01-16T07:18:14;3.50;56.70
15574;DHT22;7888;46.748;8.102;2023-01-16T07:21:03;3.50;56.70
15574;DHT22;7888;46.748;8.102;2023-01-16T07:24:04;3.50;56.70
15574;DHT22;7888;46.748;8.102;2023-01-16T07:26:34;3.50;56.90
15574;DHT22;7888;46.748;8.102;2023-01-16T07:29:05;3.50;56.90
15574;DHT22;7888;46.748;8.102;2023-01-16T07:31:33;3.50;56.80
15574;DHT22;7888;46.748;8.102;2023-01-16T07:33:59;3.50;56.90
15574;DHT22;7888;46.748;8.102;2023-01-16T07:36:25;3.60;57.00
15574;DHT22;7888;46.748;8.102;2023-01-16T07:38:51;3.60;56.90
15574;DHT22;7888;46.748;8.102;2023-01-16T07:41:16;3.60;57.00
15574;DHT22;7888;46.748;8.102;2023-01-16T07:43:42;3.60;57.00
15574;DHT22;7888;46.748;8.102;2023-01-16T07:46:08;3.60;57.10
15574;DHT22;7888;46.748;8.102;2023-01-16T07:48:34;3.60;57.10
15574;DHT22;7888;46.748;8.102;2023-01-16T07:51:00;3.60;57.10
15574;DHT22;7888;46.748;8.102;2023-01-16T07:53:27;3.70;57.10
15574;DHT22;7888;46.748;8.102;2023-01-16T07:55:59;3.70;57.20
15574;DHT22;7888;46.748;8.102;2023-01-16T07:58:27;3.70;57.30
15574;DHT22;7888;46.748;8.102;2023-01-16T08:00:56;3.70;57.20
15574;DHT22;7888;46.748;8.102;2023-01-16T08:03:23;3.80;57.30
15574;DHT22;7888;46.748;8.102;2023-01-16T08:05:55;3.80;57.20
15574;DHT22;7888;46.748;8.102;2023-01-16T08:08:21;3.80;57.20
15574;DHT22;7888;46.748;8.102;2023-01-16T08:10:47;3.90;57.20
15574;DHT22;7888;46.748;8.102;2023-01-16T08:13:13;3.80;57.30
15574;DHT22;7888;46.748;8.102;2023-01-16T08:15:39;3.90;57.30
15574;DHT22;7888;46.748;8.102;2023-01-16T08:18:06;3.90;57.40
15574;DHT22;7888;46.748;8.102;2023-01-16T08:20:31;4.00;57.50
15574;DHT22;7888;46.748;8.102;2023-01-16T08:22:57;4.00;57.40
15574;DHT22;7888;46.748;8.102;2023-01-16T08:25:25;4.00;57.40
15574;DHT22;7888;46.748;8.102;2023-01-16T08:27:51;4.10;57.50
15574;DHT22;7888;46.748;8.102;2023-01-16T08:30:17;4.10;57.50
15574;DHT22;7888;46.748;8.102;2023-01-16T08:32:43;4.10;57.40
15574;DHT22;7888;46.748;8.102;2023-01-16T08:35:09;4.20;57.40
15574;DHT22;7888;46.748;8.102;2023-01-16T08:37:35;4.20;57.30
15574;DHT22;7888;46.748;8.102;2023-01-16T08:40:01;4.30;57.30
15574;DHT22;7888;46.748;8.102;2023-01-16T08:42:29;4.30;57.20
15574;DHT22;7888;46.748;8.102;2023-01-16T08:45:13;4.40;57.20
15574;DHT22;7888;46.748;8.102;2023-01-16T08:47:59;4.40;57.10
15574;DHT22;7888;46.748;8.102;2023-01-16T08:50:46;4.50;57.10
15574;DHT22;7888;46.748;8.102;2023-01-16T08:53:31;4.50;57.10
15574;DHT22;7888;46.748;8.102;2023-01-16T08:55:58;4.60;57.10
15574;DHT22;7888;46.748;8.102;2023-01-16T08:58:24;4.60;57.70
15574;DHT22;7888;46.748;8.102;2023-01-16T09:00:50;4.60;57.10
15574;DHT22;7888;46.748;8.102;2023-01-16T09:03:16;4.70;57.30
15574;DHT22;7888;46.748;8.102;2023-01-16T09:05:43;4.70;57.30
15574;DHT22;7888;46.748;8.102;2023-01-16T09:08:09;4.80;57.30
15574;DHT22;7888;46.748;8.102;2023-01-16T09:10:36;4.80;57.40
15574;DHT22;7888;46.748;8.102;2023-01-16T09:13:02;4.90;57.40
15574;DHT22;7888;46.748;8.102;2023-01-16T09:15:47;5.00;57.90
15574;DHT22;7888;46.748;8.102;2023-01-16T09:18:13;5.00;57.20
15574;DHT22;7888;46.748;8.102;2023-01-16T09:20:39;5.10;57.20
15574;DHT22;7888;46.748;8.102;2023-01-16T09:23:05;5.10;57.10
15574;DHT22;7888;46.748;8.102;2023-01-16T09:25:32;5.10;57.10
15574;DHT22;7888;46.748;8.102;2023-01-16T09:27:59;5.20;57.20
15574;DHT22;7888;46.748;8.102;2023-01-16T09:30:26;5.30;57.20
15574;DHT22;7888;46.748;8.102;2023-01-16T09:32:52;5.30;57.10
15574;DHT22;7888;46.748;8.102;2023-01-16T09:35:18;5.40;57.00
15574;DHT22;7888;46.748;8.102;2023-01-16T09:37:44;5.40;57.00
15574;DHT22;7888;46.748;8.102;2023-01-16T09:40:16;5.40;57.20
15574;DHT22;7888;46.748;8.102;2023-01-16T09:42:51;5.50;57.00
15574;DHT22;7888;46.748;8.102;2023-01-16T09:45:40;5.60;57.10
15574;DHT22;7888;46.748;8.102;2023-01-16T09:48:24;5.60;57.00
15574;DHT22;7888;46.748;8.102;2023-01-16T09:50:56;5.70;57.50
15574;DHT22;7888;46.748;8.102;2023-01-16T09:53:35;5.80;57.60
15574;DHT22;7888;46.748;8.102;2023-01-16T09:56:49;5.90;57.60
15574;DHT22;7888;46.748;8.102;2023-01-16T09:59:43;6.10;57.60
15574;DHT22;7888;46.748;8.102;2023-01-16T10:02:28;6.20;57.40
15574;DHT22;7888;46.748;8.102;2023-01-16T10:04:58;6.30;57.00
15574;DHT22;7888;46.748;8.102;2023-01-16T10:10:49;6.40;56.80
15574;DHT22;7888;46.748;8.102;2023-01-16T10:17:23;6.60;56.80
15574;DHT22;7888;46.748;8.102;2023-01-16T10:20:14;6.60;56.70
15574;DHT22;7888;46.748;8.102;2023-01-16T10:25:35;6.70;56.80
15574;DHT22;7888;46.748;8.102;2023-01-16T10:31:26;6.80;57.10
15574;DHT22;7888;46.748;8.102;2023-01-16T10:34:08;6.80;56.90
15574;DHT22;7888;46.748;8.102;2023-01-16T10:36:41;6.90;56.90
15574;DHT22;7888;46.748;8.102;2023-01-16T10:39:12;7.00;56.90
15574;DHT22;7888;46.748;8.102;2023-01-16T10:41:46;7.00;56.80
15574;DHT22;7888;46.748;8.102;2023-01-16T10:44:38;7.00;57.20
15574;DHT22;7888;46.748;8.102;2023-01-16T10:47:32;7.10;56.50
15574;DHT22;7888;46.748;8.102;2023-01-16T10:50:23;7.10;56.50
15574;DHT22;7888;46.748;8.102;2023-01-16T10:52:50;7.10;56.30
15574;DHT22;7888;46.748;8.102;2023-01-16T10:55:17;7.10;56.30
15574;DHT22;7888;46.748;8.102;2023-01-16T10:57:51;7.20;56.30
15574;DHT22;7888;46.748;8.102;2023-01-16T11:00:23;7.20;56.20
15574;DHT22;7888;46.748;8.102;2023-01-16T11:03:01;7.20;56.20
15574;DHT22;7888;46.748;8.102;2023-01-16T11:05:36;7.20;56.10
15574;DHT22;7888;46.748;8.102;2023-01-16T11:08:16;7.30;56.10
15574;DHT22;7888;46.748;8.102;2023-01-16T11:10:46;7.30;56.10
15574;DHT22;7888;46.748;8.102;2023-01-16T11:16:16;7.30;56.20
15574;DHT22;7888;46.748;8.102;2023-01-16T11:19:26;7.30;56.10
15574;DHT22;7888;46.748;8.102;2023-01-16T11:21:58;7.40;56.10
15574;DHT22;7888;46.748;8.102;2023-01-16T11:24:35;7.40;56.10
15574;DHT22;7888;46.748;8.102;2023-01-16T11:27:12;7.40;56.10
15574;DHT22;7888;46.748;8.102;2023-01-16T11:29:41;7.40;56.00
15574;DHT22;7888;46.748;8.102;2023-01-16T11:32:13;7.40;56.00
15574;DHT22;7888;46.748;8.102;2023-01-16T11:34:45;7.30;56.00
15574;DHT22;7888;46.748;8.102;2023-01-16T11:37:14;7.40;56.00
15574;DHT22;7888;46.748;8.102;2023-01-16T11:39:48;7.40;56.00
15574;DHT22;7888;46.748;8.102;2023-01-16T11:42:16;7.30;56.10
15574;DHT22;7888;46.748;8.102;2023-01-16T11:45:13;7.40;56.20
15574;DHT22;7888;46.748;8.102;2023-01-16T11:48:02;7.40;56.10
15574;DHT22;7888;46.748;8.102;2023-01-16T11:50:56;7.40;55.90
15574;DHT22;7888;46.748;8.102;2023-01-16T11:53:23;7.40;55.80
15574;DHT22;7888;46.748;8.102;2023-01-16T12:05:03;7.50;56.00
15574;DHT22;7888;46.748;8.102;2023-01-16T12:13:57;7.60;56.00
15574;DHT22;7888;46.748;8.102;2023-01-16T12:16:50;7.60;55.90
15574;DHT22;7888;46.748;8.102;2023-01-16T12:28:24;7.80;55.60
15574;DHT22;7888;46.748;8.102;2023-01-16T12:40:04;7.80;54.80
15574;DHT22;7888;46.748;8.102;2023-01-16T13:05:28;8.00;56.10
15574;DHT22;7888;46.748;8.102;2023-01-16T13:08:20;8.10;55.20
15574;DHT22;7888;46.748;8.102;2023-01-16T13:10:53;8.00;54.80
15574;DHT22;7888;46.748;8.102;2023-01-16T13:13:52;8.10;54.90
15574;DHT22;7888;46.748;8.102;2023-01-16T13:16:30;8.00;54.60
15574;DHT22;7888;46.748;8.102;2023-01-16T13:24:49;8.10;54.40
15574;DHT22;7888;46.748;8.102;2023-01-16T13:27:21;8.20;54.70
15574;DHT22;7888;46.748;8.102;2023-01-16T13:29:54;8.20;55.00
15574;DHT22;7888;46.748;8.102;2023-01-16T13:32:54;8.30;55.20
15574;DHT22;7888;46.748;8.102;2023-01-16T13:41:16;8.30;54.50
15574;DHT22;7888;46.748;8.102;2023-01-16T13:44:21;8.30;54.40
15574;DHT22;7888;46.748;8.102;2023-01-16T13:47:20;8.30;54.60
15574;DHT22;7888;46.748;8.102;2023-01-16T13:49:52;8.30;54.70
15574;DHT22;7888;46.748;8.102;2023-01-16T13:52:22;8.30;54.80
15574;DHT22;7888;46.748;8.102;2023-01-16T13:54:54;8.30;54.90
15574;DHT22;7888;46.748;8.102;2023-01-16T13:57:24;8.30;55.00
15574;DHT22;7888;46.748;8.102;2023-01-16T14:00:02;8.30;55.00
15574;DHT22;7888;46.748;8.102;2023-01-16T14:13:33;8.30;55.10
15574;DHT22;7888;46.748;8.102;2023-01-16T14:16:30;8.30;55.00
15574;DHT22;7888;46.748;8.102;2023-01-16T14:21:42;8.40;55.10
15574;DHT22;7888;46.748;8.102;2023-01-16T14:24:28;8.40;55.20
15574;DHT22;7888;46.748;8.102;2023-01-16T14:27:11;8.40;55.30
15574;DHT22;7888;46.748;8.102;2023-01-16T14:32:20;8.50;55.20
15574;DHT22;7888;46.748;8.102;2023-01-16T14:34:53;8.50;55.20
15574;DHT22;7888;46.748;8.102;2023-01-16T14:37:35;8.50;55.20
15574;DHT22;7888;46.748;8.102;2023-01-16T14:42:43;8.40;54.90
15574;DHT22;7888;46.748;8.102;2023-01-16T14:45:37;8.40;55.00
15574;DHT22;7888;46.748;8.102;2023-01-16T14:56:52;8.40;54.90
15574;DHT22;7888;46.748;8.102;2023-01-16T14:59:39;8.30;54.70
15574;DHT22;7888;46.748;8.102;2023-01-16T15:02:35;8.30;54.90
15574;DHT22;7888;46.748;8.102;2023-01-16T15:05:14;8.30;55.10
15574;DHT22;7888;46.748;8.102;2023-01-16T15:07:53;8.30;55.20
15574;DHT22;7888;46.748;8.102;2023-01-16T15:10:34;8.30;55.20
15574;DHT22;7888;46.748;8.102;2023-01-16T15:13:21;8.30;55.20
15574;DHT22;7888;46.748;8.102;2023-01-16T15:16:24;8.30;54.80
15574;DHT22;7888;46.748;8.102;2023-01-16T15:19:18;8.30;55.10
15574;DHT22;7888;46.748;8.102;2023-01-16T15:22:38;8.20;54.80
15574;DHT22;7888;46.748;8.102;2023-01-16T15:28:14;8.20;54.90
15574;DHT22;7888;46.748;8.102;2023-01-16T15:30:47;8.20;55.00
15574;DHT22;7888;46.748;8.102;2023-01-16T15:33:28;8.20;55.00
15574;DHT22;7888;46.748;8.102;2023-01-16T15:36:35;8.20;54.90
15574;DHT22;7888;46.748;8.102;2023-01-16T15:42:15;8.10;54.80
15574;DHT22;7888;46.748;8.102;2023-01-16T15:45:16;8.10;54.80
15574;DHT22;7888;46.748;8.102;2023-01-16T15:51:11;8.00;54.70
15574;DHT22;7888;46.748;8.102;2023-01-16T15:53:45;8.00;54.90
15574;DHT22;7888;46.748;8.102;2023-01-16T15:56:36;7.90;55.00
15574;DHT22;7888;46.748;8.102;2023-01-16T15:59:28;7.90;55.00
15574;DHT22;7888;46.748;8.102;2023-01-16T16:02:30;7.90;55.00
15574;DHT22;7888;46.748;8.102;2023-01-16T16:05:00;7.90;54.80
15574;DHT22;7888;46.748;8.102;2023-01-16T16:07:27;7.80;54.90
15574;DHT22;7888;46.748;8.102;2023-01-16T16:09:58;7.80;54.80
15574;DHT22;7888;46.748;8.102;2023-01-16T16:12:27;7.80;54.80
15574;DHT22;7888;46.748;8.102;2023-01-16T16:15:17;7.80;54.90
15574;DHT22;7888;46.748;8.102;2023-01-16T16:18:16;7.80;54.60
15574;DHT22;7888;46.748;8.102;2023-01-16T16:20:46;7.80;54.60
15574;DHT22;7888;46.748;8.102;2023-01-16T16:23:15;7.70;54.70
15574;DHT22;7888;46.748;8.102;2023-01-16T16:25:54;7.70;54.80
15574;DHT22;7888;46.748;8.102;2023-01-16T16:36:29;7.60;54.70
15574;DHT22;7888;46.748;8.102;2023-01-16T16:38:59;7.60;54.80
15574;DHT22;7888;46.748;8.102;2023-01-16T16:44:33;7.60;54.70
15574;DHT22;7888;46.748;8.102;2023-01-16T16:47:28;7.60;54.80
15574;DHT22;7888;46.748;8.102;2023-01-16T16:49:55;7.60;54.80
15574;DHT22;7888;46.748;8.102;2023-01-16T16:54:58;7.60;55.00
15574;DHT22;7888;46.748;8.102;2023-01-16T16:57:32;7.50;55.00
15574;DHT22;7888;46.748;8.102;2023-01-16T17:00:14;7.50;54.80
15574;DHT22;7888;46.748;8.102;2023-01-16T17:02:42;7.50;54.70
15574;DHT22;7888;46.748;8.102;2023-01-16T17:05:14;7.50;54.70
15574;DHT22;7888;46.748;8.102;2023-01-16T17:07:47;7.50;54.70
15574;DHT22;7888;46.748;8.102;2023-01-16T17:10:17;7.40;54.70
15574;DHT22;7888;46.748;8.102;2023-01-16T17:12:43;7.40;54.70
15574;DHT22;7888;46.748;8.102;2023-01-16T17:15:09;7.40;54.70
15574;DHT22;7888;46.748;8.102;2023-01-16T17:17:43;7.40;54.80
15574;DHT22;7888;46.748;8.102;2023-01-16T17:20:18;7.40;54.90
15574;DHT22;7888;46.748;8.102;2023-01-16T19:16:14;6.70;55.20
15574;DHT22;7888;46.748;8.102;2023-01-16T19:18:59;6.70;55.20
15574;DHT22;7888;46.748;8.102;2023-01-16T19:21:24;6.70;55.30
15574;DHT22;7888;46.748;8.102;2023-01-16T19:23:50;6.70;55.30
15574;DHT22;7888;46.748;8.102;2023-01-16T19:26:21;6.80;55.40
15574;DHT22;7888;46.748;8.102;2023-01-16T19:28:46;6.80;55.40
15574;DHT22;7888;46.748;8.102;2023-01-16T19:31:12;6.80;55.40
15574;DHT22;7888;46.748;8.102;2023-01-16T19:33:38;6.90;55.40
15574;DHT22;7888;46.748;8.102;2023-01-16T19:36:04;6.90;55.50
15574;DHT22;7888;46.748;8.102;2023-01-16T19:38:30;7.00;55.50
15574;DHT22;7888;46.748;8.102;2023-01-16T19:41:03;7.00;55.50
15574;DHT22;7888;46.748;8.102;2023-01-16T19:43:29;7.00;55.60
15574;DHT22;7888;46.748;8.102;2023-01-16T19:46:26;7.10;55.60
15574;DHT22;7888;46.748;8.102;2023-01-16T19:49:07;7.10;55.60
15574;DHT22;7888;46.748;8.102;2023-01-16T19:51:34;7.10;55.60
15574;DHT22;7888;46.748;8.102;2023-01-16T19:54:00;7.00;55.60
15574;DHT22;7888;46.748;8.102;2023-01-16T19:56:30;7.00;55.70
15574;DHT22;7888;46.748;8.102;2023-01-16T19:58:57;7.00;55.80
15574;DHT22;7888;46.748;8.102;2023-01-16T20:01:23;7.00;55.90
15574;DHT22;7888;46.748;8.102;2023-01-16T20:03:50;7.00;56.00
15574;DHT22;7888;46.748;8.102;2023-01-16T20:06:16;7.00;56.00
15574;DHT22;7888;46.748;8.102;2023-01-16T20:08:42;7.00;56.10
15574;DHT22;7888;46.748;8.102;2023-01-16T20:11:08;7.00;56.10
15574;DHT22;7888;46.748;8.102;2023-01-16T20:13:34;7.00;56.20
15574;DHT22;7888;46.748;8.102;2023-01-16T20:16:07;7.00;56.20
15574;DHT22;7888;46.748;8.102;2023-01-16T20:18:34;7.00;56.30
15574;DHT22;7888;46.748;8.102;2023-01-16T20:21:07;7.00;56.20
15574;DHT22;7888;46.748;8.102;2023-01-16T20:23:35;6.90;56.30
15574;DHT22;7888;46.748;8.102;2023-01-16T20:26:03;7.00;56.30
15574;DHT22;7888;46.748;8.102;2023-01-16T20:28:33;6.90;56.20
15574;DHT22;7888;46.748;8.102;2023-01-16T20:31:01;6.90;56.30
15574;DHT22;7888;46.748;8.102;2023-01-16T20:33:28;6.90;56.20
15574;DHT22;7888;46.748;8.102;2023-01-16T20:36:05;6.90;56.20
15574;DHT22;7888;46.748;8.102;2023-01-16T20:38:34;6.90;56.30
15574;DHT22;7888;46.748;8.102;2023-01-16T20:41:05;6.90;56.30
15574;DHT22;7888;46.748;8.102;2023-01-16T20:43:32;6.90;56.50
15574;DHT22;7888;46.748;8.102;2023-01-16T20:46:16;6.90;56.50
15574;DHT22;7888;46.748;8.102;2023-01-16T20:48:42;6.90;56.40
15574;DHT22;7888;46.748;8.102;2023-01-16T20:51:08;6.90;56.50
15574;DHT22;7888;46.748;8.102;2023-01-16T20:53:35;6.90;56.50
15574;DHT22;7888;46.748;8.102;2023-01-16T20:56:03;6.90;56.50
15574;DHT22;7888;46.748;8.102;2023-01-16T20:58:30;6.90;56.60
15574;DHT22;7888;46.748;8.102;2023-01-16T21:01:00;6.90;56.60
15574;DHT22;7888;46.748;8.102;2023-01-16T21:03:28;6.90;56.80
15574;DHT22;7888;46.748;8.102;2023-01-16T21:05:54;6.90;56.60
15574;DHT22;7888;46.748;8.102;2023-01-16T21:08:21;6.90;56.70
15574;DHT22;7888;46.748;8.102;2023-01-16T21:10:49;6.90;56.70
15574;DHT22;7888;46.748;8.102;2023-01-16T21:13:15;6.90;56.70
15574;DHT22;7888;46.748;8.102;2023-01-16T21:15:59;6.90;56.80
15574;DHT22;7888;46.748;8.102;2023-01-16T21:18:44;7.00;56.80
15574;DHT22;7888;46.748;8.102;2023-01-16T21:21:29;6.90;56.80
15574;DHT22;7888;46.748;8.102;2023-01-16T21:24:14;6.90;56.70